createdAt,value
2018-09-29T00:00:21.768Z,12.33
2018-09-29T00:02:54.596Z,12.36
2018-09-29T00:05:26.972Z,12.34
2018-09-29T00:07:59.472Z,12.33
2018-09-29T00:10:31.861Z,12.38
2018-09-29T00:13:04.289Z,12.30
2018-09-29T00:15:36.573Z,12.23
2018-09-29T00:18:08.944Z,12.15
2018-09-29T00:20:41.252Z,12.23
2018-09-29T00:23:13.643Z,12.21
2018-09-29T00:25:45.919Z,12.24
2018-09-29T00:28:18.270Z,12.25
2018-09-29T00:30:50.574Z,12.17
2018-09-29T00:33:22.892Z,12.25
2018-09-29T00:35:55.193Z,12.21
2018-09-29T00:38:27.473Z,12.10
2018-09-29T00:40:59.728Z,12.03
2018-09-29T00:43:32.043Z,12.05
2018-09-29T00:46:04.297Z,12.09
2018-09-29T00:48:36.693Z,12.02
2018-09-29T00:51:08.908Z,12.11
2018-09-29T00:53:41.208Z,12.12
2018-09-29T00:56:13.459Z,12.13
2018-09-29T00:58:45.866Z,12.13
2018-09-29T01:01:18.162Z,12.14
2018-09-29T01:03:50.480Z,12.11
2018-09-29T01:06:22.760Z,12.22
2018-09-29T01:08:55.085Z,12.26
2018-09-29T01:11:27.402Z,12.13
2018-09-29T01:13:59.733Z,12.13
2018-09-29T01:16:31.979Z,12.15
2018-09-29T01:19:04.343Z,12.16
2018-09-29T01:21:36.599Z,12.16
2018-09-29T01:24:08.901Z,12.18
2018-09-29T01:26:41.178Z,12.16
2018-09-29T01:29:13.521Z,12.18
2018-09-29T01:31:45.825Z,12.29
2018-09-29T01:34:18.116Z,12.22
2018-09-29T01:36:50.347Z,12.20
2018-09-29T01:39:22.645Z,12.22
2018-09-29T01:41:54.926Z,12.18
2018-09-29T01:44:27.220Z,12.12
2018-09-29T01:46:59.516Z,12.25
2018-09-29T01:49:31.840Z,12.14
2018-09-29T01:52:04.124Z,12.15
2018-09-29T01:54:36.432Z,11.96
2018-09-29T01:57:08.681Z,11.90
2018-09-29T01:59:41.033Z,11.82
2018-09-29T02:02:13.312Z,11.72
2018-09-29T02:04:45.557Z,11.69
2018-09-29T02:07:17.924Z,11.46
2018-09-29T02:09:51.660Z,11.58
2018-09-29T02:12:24.001Z,11.55
2018-09-29T02:14:56.456Z,11.38
2018-09-29T02:17:28.887Z,11.30
2018-09-29T02:20:01.149Z,11.31
2018-09-29T02:22:33.448Z,11.26
2018-09-29T02:25:05.796Z,11.21
2018-09-29T02:27:38.052Z,11.13
2018-09-29T02:30:10.301Z,11.10
2018-09-29T02:32:42.572Z,11.09
2018-09-29T02:35:14.819Z,10.95
2018-09-29T02:37:47.113Z,10.94
2018-09-29T02:40:19.410Z,10.83
2018-09-29T02:42:51.741Z,10.74
2018-09-29T02:45:23.978Z,10.59
2018-09-29T02:47:56.263Z,10.64
2018-09-29T02:50:28.555Z,10.55
2018-09-29T02:53:00.930Z,10.49
2018-09-29T02:55:33.181Z,10.43
2018-09-29T02:58:05.506Z,10.38
2018-09-29T03:00:37.894Z,10.44
2018-09-29T03:03:10.172Z,10.43
2018-09-29T03:05:42.425Z,10.45
2018-09-29T03:08:14.708Z,10.35
2018-09-29T03:10:46.960Z,10.35
2018-09-29T03:13:19.337Z,10.31
2018-09-29T03:15:51.663Z,10.21
2018-09-29T03:18:23.930Z,10.20
2018-09-29T03:20:56.205Z,10.15
2018-09-29T03:23:28.600Z,10.04
2018-09-29T03:26:00.872Z,10.04
2018-09-29T03:28:33.159Z,10.05
2018-09-29T03:31:05.721Z,9.99
2018-09-29T03:33:37.971Z,10.05
2018-09-29T03:36:10.226Z,9.90
2018-09-29T03:38:42.441Z,9.95
2018-09-29T03:41:15.137Z,9.89
2018-09-29T03:43:47.475Z,9.99
2018-09-29T03:46:20.268Z,10.05
2018-09-29T03:48:52.580Z,9.92
2018-09-29T03:51:24.929Z,9.89
2018-09-29T03:53:57.323Z,9.95
2018-09-29T03:56:29.565Z,9.92
2018-09-29T03:59:02.036Z,9.97
2018-09-29T04:01:34.272Z,9.97
2018-09-29T04:04:06.609Z,9.87
2018-09-29T04:06:38.989Z,9.82
2018-09-29T04:09:11.297Z,9.81
2018-09-29T04:11:43.657Z,9.83
2018-09-29T04:14:15.917Z,9.66
2018-09-29T04:16:48.247Z,9.56
2018-09-29T04:19:20.528Z,9.68
2018-09-29T04:21:52.776Z,9.67
2018-09-29T04:24:25.186Z,9.59
2018-09-29T04:26:57.421Z,9.52
2018-09-29T04:29:30.073Z,9.46
2018-09-29T04:32:02.288Z,9.51
2018-09-29T04:34:34.701Z,9.50
2018-09-29T04:37:07.037Z,9.53
2018-09-29T04:39:39.280Z,9.46
2018-09-29T04:42:11.584Z,9.47
2018-09-29T04:44:43.965Z,9.37
2018-09-29T04:47:16.215Z,9.34
2018-09-29T04:49:48.490Z,9.28
2018-09-29T04:52:20.885Z,9.20
2018-09-29T04:54:53.232Z,9.19
2018-09-29T04:57:25.561Z,9.25
2018-09-29T04:59:58.116Z,9.25
2018-09-29T05:02:30.469Z,9.21
2018-09-29T05:05:03.241Z,9.22
2018-09-29T05:07:35.489Z,9.23
2018-09-29T05:10:07.784Z,9.22
2018-09-29T05:12:40.017Z,9.19
2018-09-29T05:15:12.510Z,9.16
2018-09-29T05:17:45.240Z,9.15
2018-09-29T05:20:17.561Z,9.10
2018-09-29T05:22:49.953Z,9.15
2018-09-29T05:25:22.216Z,9.20
2018-09-29T05:27:54.499Z,9.10
2018-09-29T05:30:26.767Z,9.05
2018-09-29T05:32:59.030Z,9.01
2018-09-29T05:35:31.257Z,8.98
2018-09-29T05:38:03.525Z,9.04
2018-09-29T05:40:42.616Z,8.91
2018-09-29T05:43:14.968Z,8.92
2018-09-29T05:45:47.269Z,8.98
2018-09-29T05:48:19.536Z,9.02
2018-09-29T05:50:51.812Z,9.02
2018-09-29T05:53:24.121Z,9.09
2018-09-29T05:55:56.373Z,9.19
2018-09-29T05:58:28.633Z,9.17
2018-09-29T06:01:00.925Z,9.21
2018-09-29T06:03:33.178Z,9.37
2018-09-29T06:06:05.451Z,9.49
2018-09-29T06:08:37.764Z,9.66
2018-09-29T06:11:10.417Z,9.93
2018-09-29T06:13:42.672Z,10.07
2018-09-29T06:16:14.957Z,10.40
2018-09-29T06:18:47.229Z,10.62
2018-09-29T06:21:19.505Z,10.80
2018-09-29T06:23:51.830Z,11.15
2018-09-29T06:26:24.157Z,11.22
2018-09-29T06:28:56.423Z,11.48
2018-09-29T06:31:28.713Z,11.62
2018-09-29T06:34:01.008Z,12.01
2018-09-29T06:36:33.340Z,12.21
2018-09-29T06:39:07.275Z,12.57
2018-09-29T06:41:39.573Z,12.30
2018-09-29T06:44:11.813Z,12.36
2018-09-29T06:46:44.153Z,11.88
2018-09-29T06:49:16.408Z,12.28
2018-09-29T06:51:48.759Z,12.28
2018-09-29T06:54:21.115Z,12.22
2018-09-29T06:56:53.405Z,12.47
2018-09-29T06:59:25.665Z,12.63
2018-09-29T07:01:58.017Z,12.48
2018-09-29T07:04:30.357Z,12.43
2018-09-29T07:07:02.701Z,12.29
2018-09-29T07:09:34.940Z,12.73
2018-09-29T07:12:07.272Z,12.42
2018-09-29T07:14:39.601Z,12.42
2018-09-29T07:17:11.945Z,12.54
2018-09-29T07:19:44.223Z,12.69
2018-09-29T07:22:16.533Z,13.01
2018-09-29T07:24:48.818Z,13.27
2018-09-29T07:27:21.143Z,13.50
2018-09-29T07:29:53.518Z,13.50
2018-09-29T07:32:25.848Z,13.52
2018-09-29T07:34:58.167Z,13.59
2018-09-29T07:37:30.532Z,13.27
2018-09-29T07:40:02.857Z,13.44
2018-09-29T07:42:35.204Z,12.94
2018-09-29T07:45:07.510Z,12.98
2018-09-29T07:47:39.804Z,13.00
2018-09-29T07:50:12.089Z,12.94
2018-09-29T07:52:44.451Z,13.25
2018-09-29T07:55:16.753Z,13.29
2018-09-29T07:57:49.063Z,13.07
2018-09-29T08:00:21.437Z,13.12
2018-09-29T08:02:53.755Z,13.20
2018-09-29T08:05:26.069Z,13.39
2018-09-29T08:07:58.351Z,13.15
2018-09-29T08:10:30.677Z,13.40
2018-09-29T08:13:03.083Z,13.70
2018-09-29T08:15:35.539Z,13.92
2018-09-29T08:18:07.917Z,13.98
2018-09-29T08:20:40.241Z,14.16
2018-09-29T08:23:12.760Z,14.41
2018-09-29T08:25:45.232Z,14.63
2018-09-29T08:28:17.586Z,14.84
2018-09-29T08:30:49.940Z,14.51
2018-09-29T08:33:22.299Z,14.67
2018-09-29T08:35:54.651Z,14.62
2018-09-29T08:38:27.195Z,14.92
2018-09-29T08:40:59.555Z,15.03
2018-09-29T08:43:31.893Z,15.31
2018-09-29T08:46:04.264Z,15.60
2018-09-29T08:48:36.595Z,15.81
2018-09-29T08:51:08.987Z,16.03
2018-09-29T08:53:41.392Z,16.26
2018-09-29T08:56:13.729Z,16.07
2018-09-29T08:58:45.998Z,16.09
2018-09-29T09:01:18.325Z,15.76
2018-09-29T09:03:50.634Z,15.93
2018-09-29T09:06:22.997Z,16.12
2018-09-29T09:08:55.330Z,16.24
2018-09-29T09:11:27.690Z,16.49
2018-09-29T09:14:00.051Z,16.72
2018-09-29T09:16:32.557Z,16.60
2018-09-29T09:19:04.998Z,16.62
2018-09-29T09:21:37.326Z,16.28
2018-09-29T09:24:09.748Z,16.33
2018-09-29T09:26:42.090Z,16.16
2018-09-29T09:29:14.390Z,15.94
2018-09-29T09:31:46.794Z,15.92
2018-09-29T09:34:19.088Z,15.90
2018-09-29T09:36:51.420Z,15.81
2018-09-29T09:39:23.839Z,16.05
2018-09-29T09:41:56.161Z,16.16
2018-09-29T09:44:28.510Z,16.27
2018-09-29T09:47:00.830Z,16.18
2018-09-29T09:49:33.234Z,16.25
2018-09-29T09:52:05.575Z,16.16
2018-09-29T09:54:37.904Z,16.07
2018-09-29T09:57:10.213Z,16.17
2018-09-29T09:59:42.589Z,16.00
2018-09-29T10:02:20.787Z,16.01
2018-09-29T10:04:53.077Z,16.33
2018-09-29T10:07:25.415Z,16.31
2018-09-29T10:09:57.749Z,16.34
2018-09-29T10:12:30.156Z,16.10
2018-09-29T10:15:02.530Z,16.43
2018-09-29T10:17:34.992Z,16.43
2018-09-29T10:20:07.261Z,16.75
2018-09-29T10:22:39.646Z,16.70
2018-09-29T10:25:12.023Z,16.72
2018-09-29T10:27:44.413Z,16.74
2018-09-29T10:30:16.678Z,16.73
2018-09-29T10:32:49.082Z,16.66
2018-09-29T10:35:21.365Z,16.86
2018-09-29T10:37:53.713Z,16.64
2018-09-29T10:40:26.072Z,16.74
2018-09-29T10:42:58.513Z,16.84
2018-09-29T10:45:30.948Z,16.73
2018-09-29T10:48:03.288Z,16.80
2018-09-29T10:50:35.585Z,16.84
2018-09-29T10:53:07.898Z,16.75
2018-09-29T10:55:40.182Z,16.59
2018-09-29T10:58:12.564Z,16.52
2018-09-29T11:00:44.891Z,16.34
2018-09-29T11:03:17.314Z,16.31
2018-09-29T11:05:49.657Z,16.10
2018-09-29T11:08:21.924Z,16.38
2018-09-29T11:10:54.268Z,16.48
2018-09-29T11:13:26.591Z,16.69
2018-09-29T11:15:58.915Z,16.79
2018-09-29T11:18:31.484Z,16.54
2018-09-29T11:21:03.871Z,16.63
2018-09-29T11:23:36.278Z,16.59
2018-09-29T11:26:08.602Z,16.63
2018-09-29T11:28:40.894Z,16.54
2018-09-29T11:31:13.224Z,16.81
2018-09-29T11:33:45.566Z,16.62
2018-09-29T11:36:17.993Z,16.70
2018-09-29T11:38:50.372Z,16.37
2018-09-29T11:41:22.644Z,16.60
2018-09-29T11:43:55.068Z,16.78
2018-09-29T11:46:27.349Z,16.76
2018-09-29T11:48:59.679Z,16.86
2018-09-29T11:51:31.999Z,16.79
2018-09-29T11:54:04.423Z,16.84
2018-09-29T11:56:36.726Z,16.97
2018-09-29T11:59:09.082Z,16.91
2018-09-29T12:01:41.420Z,17.15
2018-09-29T12:04:13.697Z,16.78
2018-09-29T12:06:45.967Z,16.43
2018-09-29T12:09:18.349Z,16.73
2018-09-29T12:11:50.714Z,16.76
2018-09-29T12:14:23.074Z,16.98
2018-09-29T12:16:55.300Z,17.05
2018-09-29T12:19:27.660Z,17.16
2018-09-29T12:21:59.920Z,17.18
2018-09-29T12:24:32.206Z,17.24
2018-09-29T12:27:04.510Z,17.38
2018-09-29T12:29:36.889Z,17.34
2018-09-29T12:32:09.220Z,17.10
2018-09-29T12:34:41.602Z,17.14
2018-09-29T12:37:14.156Z,17.21
2018-09-29T12:39:46.338Z,17.20
2018-09-29T12:42:18.706Z,17.29
2018-09-29T12:44:51.088Z,17.39
2018-09-29T12:47:23.324Z,17.40
2018-09-29T12:49:55.629Z,17.37
2018-09-29T12:52:27.914Z,17.38
2018-09-29T12:55:00.298Z,17.44
2018-09-29T12:57:32.560Z,17.47
2018-09-29T13:00:05.086Z,17.62
2018-09-29T13:02:37.412Z,17.61
2018-09-29T13:05:09.769Z,17.59
2018-09-29T13:07:42.100Z,17.93
2018-09-29T13:10:14.438Z,17.78
2018-09-29T13:12:46.714Z,17.82
2018-09-29T13:15:19.029Z,17.65
2018-09-29T13:17:51.367Z,17.70
2018-09-29T13:20:23.685Z,17.70
2018-09-29T13:22:56.010Z,17.65
2018-09-29T13:25:28.309Z,17.78
2018-09-29T13:28:00.574Z,17.88
2018-09-29T13:30:32.924Z,17.70
2018-09-29T13:33:05.205Z,17.75
2018-09-29T13:35:37.468Z,17.77
2018-09-29T13:38:09.786Z,17.66
2018-09-29T13:40:42.057Z,17.59
2018-09-29T13:43:14.450Z,17.52
2018-09-29T13:45:46.781Z,17.48
2018-09-29T13:48:19.115Z,17.65
2018-09-29T13:50:51.373Z,17.72
2018-09-29T13:53:23.676Z,17.78
2018-09-29T13:55:55.956Z,17.62
2018-09-29T13:58:28.246Z,17.68
2018-09-29T14:01:00.946Z,17.85
2018-09-29T14:03:33.259Z,17.77
2018-09-29T14:06:05.621Z,17.91
2018-09-29T14:08:37.970Z,17.81
2018-09-29T14:11:10.281Z,17.81
2018-09-29T14:13:42.610Z,17.74
2018-09-29T14:16:15.032Z,17.73
2018-09-29T14:18:47.331Z,17.73
2018-09-29T14:21:19.605Z,17.69
2018-09-29T14:23:51.918Z,17.72
2018-09-29T14:26:24.233Z,17.68
2018-09-29T14:28:56.528Z,17.77
2018-09-29T14:31:28.858Z,17.89
2018-09-29T14:34:01.191Z,17.90
2018-09-29T14:36:33.549Z,17.78
2018-09-29T14:39:07.423Z,17.65
2018-09-29T14:41:39.870Z,17.73
2018-09-29T14:44:12.152Z,17.70
2018-09-29T14:46:44.488Z,17.61
2018-09-29T14:49:16.753Z,17.47
2018-09-29T14:51:49.068Z,17.48
2018-09-29T14:54:21.412Z,17.61
2018-09-29T14:56:53.740Z,17.72
2018-09-29T14:59:26.076Z,17.61
2018-09-29T15:01:58.371Z,17.74
2018-09-29T15:04:30.780Z,17.62
2018-09-29T15:07:03.139Z,17.55
2018-09-29T15:09:35.491Z,17.59
2018-09-29T15:12:07.807Z,17.52
2018-09-29T15:14:40.081Z,17.40
2018-09-29T15:17:12.360Z,17.40
2018-09-29T15:19:44.672Z,17.36
2018-09-29T15:22:17.013Z,17.29
2018-09-29T15:24:49.368Z,17.36
2018-09-29T15:27:21.673Z,17.47
2018-09-29T15:29:53.964Z,17.43
2018-09-29T15:32:26.233Z,17.40
2018-09-29T15:34:58.517Z,17.43
2018-09-29T15:37:30.829Z,17.40
2018-09-29T15:40:03.261Z,17.39
2018-09-29T15:42:35.661Z,17.42
2018-09-29T15:45:08.521Z,17.31
2018-09-29T15:47:40.781Z,17.31
2018-09-29T15:50:13.084Z,17.39
2018-09-29T15:52:45.387Z,17.21
2018-09-29T15:55:17.692Z,17.17
2018-09-29T15:57:50.060Z,17.10
2018-09-29T16:00:22.355Z,16.93
2018-09-29T16:02:54.652Z,16.92
2018-09-29T16:05:26.974Z,16.84
2018-09-29T16:07:59.534Z,16.91
2018-09-29T16:10:31.790Z,16.89
2018-09-29T16:13:04.237Z,16.79
2018-09-29T16:15:36.543Z,16.75
2018-09-29T16:18:08.836Z,16.76
2018-09-29T16:20:41.738Z,16.64
2018-09-29T16:23:14.451Z,16.61
2018-09-29T16:25:46.821Z,16.65
2018-09-29T16:28:19.101Z,16.52
2018-09-29T16:30:51.851Z,16.49
2018-09-29T16:33:24.290Z,16.44
2018-09-29T16:35:56.657Z,16.40
2018-09-29T16:38:29.386Z,16.37
2018-09-29T16:41:02.240Z,16.25
2018-09-29T16:43:34.698Z,16.18
2018-09-29T16:46:07.668Z,16.19
2018-09-29T16:48:40.292Z,16.09
2018-09-29T16:51:13.108Z,16.04
2018-09-29T16:53:45.647Z,16.03
2018-09-29T16:56:17.931Z,15.91
2018-09-29T16:58:50.270Z,15.80
2018-09-29T17:01:22.627Z,15.73
2018-09-29T17:03:55.008Z,15.69
2018-09-29T17:06:27.265Z,15.60
2018-09-29T17:08:59.556Z,15.61
2018-09-29T17:11:31.909Z,15.58
2018-09-29T17:14:04.265Z,15.49
2018-09-29T17:16:36.599Z,15.54
2018-09-29T17:19:08.904Z,15.41
2018-09-29T17:21:41.172Z,15.29
2018-09-29T17:24:13.497Z,15.21
2018-09-29T17:26:45.808Z,15.18
2018-09-29T17:29:18.129Z,15.18
2018-09-29T17:31:50.479Z,15.01
2018-09-29T17:34:22.769Z,14.90
2018-09-29T17:36:55.100Z,14.75
2018-09-29T17:39:27.409Z,14.67
2018-09-29T17:41:59.701Z,14.59
2018-09-29T17:44:32.009Z,14.50
2018-09-29T17:47:04.521Z,14.43
2018-09-29T17:49:36.837Z,14.37
2018-09-29T17:52:09.152Z,14.29
2018-09-29T17:54:41.460Z,14.25
2018-09-29T17:57:13.803Z,14.17
2018-09-29T17:59:47.019Z,13.94
2018-09-29T18:02:19.352Z,13.87
2018-09-29T18:04:51.699Z,13.75
2018-09-29T18:07:24.022Z,13.63
2018-09-29T18:09:56.378Z,13.53
2018-09-29T18:12:29.009Z,13.48
2018-09-29T18:15:01.560Z,13.43
2018-09-29T18:17:33.915Z,13.35
2018-09-29T18:20:07.009Z,13.27
2018-09-29T18:22:39.582Z,13.17
2018-09-29T18:25:12.139Z,13.12
2018-09-29T18:27:44.669Z,13.01
2018-09-29T18:30:17.035Z,12.89
2018-09-29T18:32:49.337Z,12.84
2018-09-29T18:35:21.688Z,12.79
2018-09-29T18:37:54.099Z,12.53
2018-09-29T18:40:26.532Z,12.53
2018-09-29T18:42:58.954Z,12.51
2018-09-29T18:45:31.335Z,12.48
2018-09-29T18:48:03.744Z,12.38
2018-09-29T18:50:36.077Z,12.28
2018-09-29T18:53:08.524Z,12.31
2018-09-29T18:55:40.824Z,12.20
2018-09-29T18:58:13.361Z,12.16
2018-09-29T19:00:45.740Z,12.02
2018-09-29T19:03:18.066Z,11.90
2018-09-29T19:05:50.443Z,11.85
2018-09-29T19:08:22.900Z,11.88
2018-09-29T19:10:55.254Z,11.75
2018-09-29T19:13:27.760Z,11.76
2018-09-29T19:16:00.126Z,11.69
2018-09-29T19:18:32.425Z,11.57
2018-09-29T19:21:04.756Z,11.47
2018-09-29T19:23:37.162Z,11.43
2018-09-29T19:26:09.531Z,11.36
2018-09-29T19:28:41.924Z,11.38
2018-09-29T19:31:14.318Z,11.32
2018-09-29T19:33:46.876Z,11.20
2018-09-29T19:36:19.191Z,11.20
2018-09-29T19:38:51.485Z,11.22
2018-09-29T19:41:23.819Z,11.15
2018-09-29T19:43:56.462Z,11.10
2018-09-29T19:46:28.867Z,11.02
2018-09-29T19:49:01.193Z,11.00
2018-09-29T19:51:33.715Z,11.00
2018-09-29T19:54:06.178Z,11.01
2018-09-29T19:56:38.667Z,10.92
2018-09-29T19:59:10.988Z,10.76
2018-09-29T20:01:43.334Z,10.78
2018-09-29T20:04:15.661Z,10.76
2018-09-29T20:06:48.057Z,10.71
2018-09-29T20:09:20.399Z,10.59
2018-09-29T20:11:52.827Z,10.50
2018-09-29T20:14:25.443Z,10.47
2018-09-29T20:16:57.816Z,10.40
2018-09-29T20:19:30.358Z,10.28
2018-09-29T20:22:03.332Z,10.22
2018-09-29T20:24:35.741Z,10.18
2018-09-29T20:27:08.594Z,10.09
2018-09-29T20:29:41.241Z,9.94
2018-09-29T20:32:13.635Z,9.81
2018-09-29T20:34:46.081Z,9.76
2018-09-29T20:37:18.530Z,9.78
2018-09-29T20:39:50.872Z,9.73
2018-09-29T20:42:23.261Z,9.70
2018-09-29T20:44:55.624Z,9.67
2018-09-29T20:47:27.952Z,9.68
2018-09-29T20:50:00.316Z,9.72
2018-09-29T20:52:32.649Z,9.78
2018-09-29T20:55:05.336Z,9.70
2018-09-29T20:57:38.013Z,9.62
2018-09-29T21:00:10.339Z,9.52
2018-09-29T21:02:42.642Z,9.56
2018-09-29T21:05:15.018Z,9.61
2018-09-29T21:07:47.416Z,9.54
2018-09-29T21:10:19.754Z,9.53
2018-09-29T21:12:52.179Z,9.55
2018-09-29T21:15:24.448Z,9.52
2018-09-29T21:17:56.749Z,9.51
2018-09-29T21:20:29.086Z,9.55
2018-09-29T21:23:01.409Z,9.46
2018-09-29T21:25:33.781Z,9.37
2018-09-29T21:28:06.147Z,9.39
2018-09-29T21:30:38.477Z,9.39
2018-09-29T21:33:10.798Z,9.33
2018-09-29T21:35:43.117Z,9.15
2018-09-29T21:38:15.466Z,9.07
2018-09-29T21:40:47.969Z,9.01
2018-09-29T21:43:20.292Z,9.00
2018-09-29T21:45:52.562Z,8.95
2018-09-29T21:48:24.874Z,8.93
2018-09-29T21:50:57.172Z,8.86
2018-09-29T21:53:29.471Z,8.88
2018-09-29T21:56:01.821Z,8.73
2018-09-29T21:58:34.163Z,8.67
2018-09-29T22:01:12.033Z,8.67
2018-09-29T22:03:44.391Z,8.62
2018-09-29T22:06:16.678Z,8.56
2018-09-29T22:08:49.000Z,8.54
2018-09-29T22:11:21.277Z,8.60
2018-09-29T22:13:54.169Z,8.54
2018-09-29T22:16:26.509Z,8.60
2018-09-29T22:18:58.776Z,8.56
2018-09-29T22:21:31.085Z,8.52
2018-09-29T22:24:03.348Z,8.44
2018-09-29T22:26:35.686Z,8.41
2018-09-29T22:29:07.939Z,8.37
2018-09-29T22:31:40.264Z,8.32
2018-09-29T22:34:12.605Z,8.21
2018-09-29T22:36:44.925Z,8.19
2018-09-29T22:39:17.267Z,8.08
2018-09-29T22:41:49.580Z,8.06
2018-09-29T22:44:21.910Z,7.91
2018-09-29T22:46:54.249Z,7.92
2018-09-29T22:49:26.604Z,7.95
2018-09-29T22:51:58.890Z,7.87
2018-09-29T22:54:31.240Z,7.75
2018-09-29T22:57:03.593Z,7.75
2018-09-29T22:59:35.952Z,7.81
2018-09-29T23:02:08.315Z,7.83
2018-09-29T23:04:40.668Z,7.78
2018-09-29T23:07:13.099Z,7.75
2018-09-29T23:09:45.365Z,7.64
2018-09-29T23:12:17.661Z,7.52
2018-09-29T23:14:49.957Z,7.50
2018-09-29T23:17:22.288Z,7.45
2018-09-29T23:19:54.723Z,7.51
2018-09-29T23:22:26.982Z,7.53
2018-09-29T23:24:59.255Z,7.48
2018-09-29T23:27:31.545Z,7.41
2018-09-29T23:30:04.116Z,7.50
2018-09-29T23:32:36.420Z,7.45
2018-09-29T23:35:08.637Z,7.42
2018-09-29T23:37:40.908Z,7.41
2018-09-29T23:40:13.194Z,7.36
2018-09-29T23:42:45.528Z,7.31
2018-09-29T23:45:17.884Z,7.24
2018-09-29T23:47:50.245Z,7.21
2018-09-29T23:50:22.594Z,7.15
2018-09-29T23:52:54.856Z,7.11
2018-09-29T23:55:27.156Z,7.03
2018-09-29T23:57:59.456Z,6.99
